createdAt,value
2018-05-29T00:00:00.486Z,19.76
2018-05-29T00:01:01.067Z,19.76
2018-05-29T00:02:01.649Z,19.74
2018-05-29T00:03:02.281Z,19.70
2018-05-29T00:04:02.861Z,19.73
2018-05-29T00:05:03.441Z,19.76
2018-05-29T00:06:04.024Z,19.82
2018-05-29T00:07:04.599Z,19.70
2018-05-29T00:08:05.180Z,19.74
2018-05-29T00:09:05.760Z,19.73
2018-05-29T00:10:06.341Z,19.74
2018-05-29T00:11:06.921Z,19.71
2018-05-29T00:12:07.500Z,19.76
2018-05-29T00:13:08.080Z,19.79
2018-05-29T00:14:08.660Z,19.73
2018-05-29T00:15:09.239Z,19.76
2018-05-29T00:16:09.817Z,19.67
2018-05-29T00:17:10.396Z,19.67
2018-05-29T00:18:11.026Z,19.73
2018-05-29T00:19:11.605Z,19.74
2018-05-29T00:20:12.185Z,19.70
2018-05-29T00:21:12.764Z,19.74
2018-05-29T00:22:13.393Z,19.71
2018-05-29T00:23:13.973Z,19.74
2018-05-29T00:24:14.553Z,19.71
2018-05-29T00:25:15.134Z,19.67
2018-05-29T00:26:15.713Z,19.66
2018-05-29T00:27:16.448Z,19.73
2018-05-29T00:28:17.023Z,19.67
2018-05-29T00:29:17.602Z,19.64
2018-05-29T00:30:18.183Z,19.59
2018-05-29T00:31:18.765Z,19.63
2018-05-29T00:32:19.346Z,19.62
2018-05-29T00:33:19.927Z,19.62
2018-05-29T00:34:20.505Z,19.64
2018-05-29T00:35:21.083Z,19.69
2018-05-29T00:36:21.664Z,19.64
2018-05-29T00:37:22.240Z,19.63
2018-05-29T00:38:22.819Z,19.66
2018-05-29T00:39:23.449Z,19.67
2018-05-29T00:40:24.032Z,19.69
2018-05-29T00:41:24.609Z,19.69
2018-05-29T00:42:25.189Z,19.66
2018-05-29T00:43:25.808Z,19.63
2018-05-29T00:44:26.435Z,19.66
2018-05-29T00:45:27.015Z,19.64
2018-05-29T00:46:27.593Z,19.63
2018-05-29T00:47:28.223Z,19.66
2018-05-29T00:48:28.802Z,19.66
2018-05-29T00:49:29.379Z,19.62
2018-05-29T00:50:29.957Z,19.62
2018-05-29T00:51:30.536Z,19.62
2018-05-29T00:52:31.117Z,19.63
2018-05-29T00:53:31.698Z,19.56
2018-05-29T00:54:32.278Z,19.58
2018-05-29T00:55:32.857Z,19.59
2018-05-29T00:56:33.435Z,19.56
2018-05-29T00:57:34.016Z,19.63
2018-05-29T00:58:34.591Z,19.59
2018-05-29T00:59:35.220Z,19.59
2018-05-29T01:00:35.849Z,19.56
2018-05-29T01:01:36.478Z,19.59
2018-05-29T01:02:37.060Z,19.54
2018-05-29T01:03:37.640Z,19.59
2018-05-29T01:04:38.221Z,19.51
2018-05-29T01:05:38.797Z,19.62
2018-05-29T01:06:39.426Z,19.58
2018-05-29T01:07:40.008Z,19.59
2018-05-29T01:08:40.592Z,19.59
2018-05-29T01:09:41.168Z,19.56
2018-05-29T01:10:41.746Z,19.58
2018-05-29T01:11:42.326Z,19.62
2018-05-29T01:12:42.960Z,19.63
2018-05-29T01:13:43.492Z,19.59
2018-05-29T01:14:44.066Z,19.59
2018-05-29T01:15:44.645Z,19.52
2018-05-29T01:16:45.227Z,19.59
2018-05-29T01:17:45.804Z,19.64
2018-05-29T01:18:46.431Z,19.59
2018-05-29T01:19:47.018Z,19.58
2018-05-29T01:20:47.597Z,19.59
2018-05-29T01:21:48.225Z,19.62
2018-05-29T01:22:48.853Z,19.56
2018-05-29T01:23:49.431Z,19.59
2018-05-29T01:24:50.013Z,19.52
2018-05-29T01:25:50.628Z,19.64
2018-05-29T01:26:51.208Z,19.62
2018-05-29T01:27:51.785Z,19.64
2018-05-29T01:28:52.364Z,19.55
2018-05-29T01:29:52.941Z,19.58
2018-05-29T01:30:53.525Z,19.64
2018-05-29T01:31:54.098Z,19.56
2018-05-29T01:32:54.677Z,19.63
2018-05-29T01:33:55.256Z,19.63
2018-05-29T01:34:55.833Z,19.64
2018-05-29T01:35:56.414Z,19.64
2018-05-29T01:36:57.087Z,19.59
2018-05-29T01:37:57.713Z,19.56
2018-05-29T01:38:58.296Z,19.58
2018-05-29T01:39:58.874Z,19.55
2018-05-29T01:40:59.454Z,19.63
2018-05-29T01:42:00.039Z,19.66
2018-05-29T01:43:00.661Z,19.63
2018-05-29T01:44:01.242Z,19.54
2018-05-29T01:45:01.824Z,19.63
2018-05-29T01:46:02.446Z,19.58
2018-05-29T01:47:03.028Z,19.59
2018-05-29T01:48:03.600Z,19.59
2018-05-29T01:49:04.185Z,19.58
2018-05-29T01:50:04.799Z,19.59
2018-05-29T01:51:05.378Z,19.59
2018-05-29T01:52:05.957Z,19.64
2018-05-29T01:53:06.589Z,19.59
2018-05-29T01:54:07.167Z,19.58
2018-05-29T01:55:07.745Z,19.55
2018-05-29T01:56:08.325Z,19.59
2018-05-29T01:57:08.900Z,19.58
2018-05-29T01:58:09.478Z,19.55
2018-05-29T01:59:10.057Z,19.59
2018-05-29T02:00:10.634Z,19.63
2018-05-29T02:01:11.214Z,19.58
2018-05-29T02:02:11.794Z,19.54
2018-05-29T02:03:12.423Z,19.49
2018-05-29T02:04:13.050Z,19.63
2018-05-29T02:05:13.630Z,19.56
2018-05-29T02:06:14.210Z,19.54
2018-05-29T02:07:14.792Z,19.63
2018-05-29T02:08:15.370Z,19.58
2018-05-29T02:09:15.948Z,19.64
2018-05-29T02:10:16.528Z,19.55
2018-05-29T02:11:17.104Z,19.64
2018-05-29T02:12:17.683Z,19.56
2018-05-29T02:13:18.261Z,19.64
2018-05-29T02:14:18.841Z,19.63
2018-05-29T02:15:19.419Z,19.63
2018-05-29T02:16:19.999Z,19.63
2018-05-29T02:17:20.577Z,19.51
2018-05-29T02:18:21.210Z,19.62
2018-05-29T02:19:21.838Z,19.69
2018-05-29T02:20:22.465Z,19.52
2018-05-29T02:21:23.044Z,19.59
2018-05-29T02:22:23.624Z,19.64
2018-05-29T02:23:24.204Z,19.59
2018-05-29T02:24:24.832Z,19.62
2018-05-29T02:25:25.414Z,19.55
2018-05-29T02:26:25.992Z,19.59
2018-05-29T02:27:26.568Z,19.56
2018-05-29T02:28:27.149Z,19.54
2018-05-29T02:29:27.732Z,19.56
2018-05-29T02:30:28.309Z,19.54
2018-05-29T02:31:28.889Z,19.55
2018-05-29T02:32:29.468Z,19.59
2018-05-29T02:33:30.045Z,19.59
2018-05-29T02:34:30.629Z,19.63
2018-05-29T02:35:31.251Z,19.56
2018-05-29T02:36:31.885Z,19.59
2018-05-29T02:37:32.503Z,19.56
2018-05-29T02:38:33.081Z,19.56
2018-05-29T02:39:33.717Z,19.55
2018-05-29T02:40:34.335Z,19.63
2018-05-29T02:41:35.003Z,19.56
2018-05-29T02:42:35.581Z,19.58
2018-05-29T02:43:36.160Z,19.56
2018-05-29T02:44:36.748Z,19.63
2018-05-29T02:45:37.317Z,19.58
2018-05-29T02:46:37.896Z,19.63
2018-05-29T02:47:38.483Z,19.58
2018-05-29T02:48:39.060Z,19.58
2018-05-29T02:49:39.637Z,19.58
2018-05-29T02:50:40.215Z,19.49
2018-05-29T02:51:40.843Z,19.55
2018-05-29T02:52:41.423Z,19.62
2018-05-29T02:53:42.001Z,19.56
2018-05-29T02:54:42.583Z,19.62
2018-05-29T02:55:43.209Z,19.62
2018-05-29T02:56:43.789Z,19.59
2018-05-29T02:57:44.421Z,19.63
2018-05-29T02:58:45.040Z,19.59
2018-05-29T02:59:45.620Z,19.55
2018-05-29T03:00:46.241Z,19.55
2018-05-29T03:01:46.821Z,19.58
2018-05-29T03:02:47.401Z,19.59
2018-05-29T03:03:47.981Z,19.55
2018-05-29T03:04:48.561Z,19.56
2018-05-29T03:05:49.140Z,19.64
2018-05-29T03:06:49.718Z,19.63
2018-05-29T03:07:50.295Z,19.58
2018-05-29T03:08:50.875Z,19.66
2018-05-29T03:09:51.495Z,19.63
2018-05-29T03:10:52.126Z,19.58
2018-05-29T03:11:52.705Z,19.56
2018-05-29T03:12:53.281Z,19.54
2018-05-29T03:13:53.860Z,19.63
2018-05-29T03:14:54.488Z,19.49
2018-05-29T03:15:55.067Z,19.59
2018-05-29T03:16:55.698Z,19.55
2018-05-29T03:17:56.276Z,19.63
2018-05-29T03:18:56.854Z,19.54
2018-05-29T03:19:57.431Z,19.59
2018-05-29T03:20:58.071Z,19.63
2018-05-29T03:21:58.588Z,19.58
2018-05-29T03:22:59.168Z,19.56
2018-05-29T03:23:59.749Z,19.55
2018-05-29T03:25:00.329Z,19.54
2018-05-29T03:26:00.908Z,19.54
2018-05-29T03:27:01.537Z,19.55
2018-05-29T03:28:02.118Z,19.54
2018-05-29T03:29:02.699Z,19.55
2018-05-29T03:30:03.275Z,19.56
2018-05-29T03:31:03.854Z,19.44
2018-05-29T03:32:04.432Z,19.56
2018-05-29T03:33:05.060Z,19.55
2018-05-29T03:34:05.639Z,19.47
2018-05-29T03:35:06.268Z,19.56
2018-05-29T03:36:06.847Z,19.58
2018-05-29T03:37:07.425Z,19.54
2018-05-29T03:38:08.003Z,19.55
2018-05-29T03:39:08.583Z,19.51
2018-05-29T03:40:09.161Z,19.55
2018-05-29T03:41:09.740Z,19.54
2018-05-29T03:42:10.369Z,19.52
2018-05-29T03:43:10.948Z,19.55
2018-05-29T03:44:11.525Z,19.52
2018-05-29T03:45:12.102Z,19.44
2018-05-29T03:46:12.678Z,19.52
2018-05-29T03:47:13.254Z,19.44
2018-05-29T03:48:13.884Z,19.52
2018-05-29T03:49:14.462Z,19.58
2018-05-29T03:50:15.041Z,19.47
2018-05-29T03:51:15.667Z,19.55
2018-05-29T03:52:16.399Z,19.47
2018-05-29T03:53:16.984Z,19.47
2018-05-29T03:54:17.560Z,19.56
2018-05-29T03:55:18.142Z,19.48
2018-05-29T03:56:18.719Z,19.51
2018-05-29T03:57:19.297Z,19.44
2018-05-29T03:58:19.876Z,19.49
2018-05-29T03:59:20.460Z,19.47
2018-05-29T04:00:21.079Z,19.49
2018-05-29T04:01:21.660Z,19.51
2018-05-29T04:02:22.239Z,19.49
2018-05-29T04:03:22.817Z,19.51
2018-05-29T04:04:23.447Z,19.52
2018-05-29T04:05:24.026Z,19.49
2018-05-29T04:06:24.606Z,19.47
2018-05-29T04:07:25.237Z,19.51
2018-05-29T04:08:25.859Z,19.45
2018-05-29T04:09:26.537Z,19.48
2018-05-29T04:10:27.067Z,19.51
2018-05-29T04:11:27.644Z,19.54
2018-05-29T04:12:28.224Z,19.48
2018-05-29T04:13:28.807Z,19.49
2018-05-29T04:14:29.381Z,19.41
2018-05-29T04:15:29.959Z,19.44
2018-05-29T04:16:30.538Z,19.45
2018-05-29T04:17:31.116Z,19.48
2018-05-29T04:18:31.695Z,19.41
2018-05-29T04:19:32.274Z,19.51
2018-05-29T04:20:32.854Z,19.47
2018-05-29T04:21:33.432Z,19.52
2018-05-29T04:22:34.014Z,19.49
2018-05-29T04:23:34.593Z,19.45
2018-05-29T04:24:35.166Z,19.52
2018-05-29T04:25:35.793Z,19.51
2018-05-29T04:26:36.424Z,19.44
2018-05-29T04:27:37.001Z,19.55
2018-05-29T04:28:37.581Z,19.41
2018-05-29T04:29:38.197Z,19.41
2018-05-29T04:30:38.828Z,19.44
2018-05-29T04:31:39.403Z,19.45
2018-05-29T04:32:39.983Z,19.49
2018-05-29T04:33:40.565Z,19.52
2018-05-29T04:34:41.143Z,19.49
2018-05-29T04:35:41.723Z,19.47
2018-05-29T04:36:42.301Z,19.51
2018-05-29T04:37:42.879Z,19.52
2018-05-29T04:38:43.457Z,19.44
2018-05-29T04:39:44.041Z,19.51
2018-05-29T04:40:44.666Z,19.44
2018-05-29T04:41:45.249Z,19.52
2018-05-29T04:42:45.872Z,19.45
2018-05-29T04:43:46.548Z,19.47
2018-05-29T04:44:47.073Z,19.44
2018-05-29T04:45:47.653Z,19.45
2018-05-29T04:46:48.228Z,19.52
2018-05-29T04:47:48.860Z,19.40
2018-05-29T04:48:49.441Z,19.47
2018-05-29T04:49:50.022Z,19.51
2018-05-29T04:50:50.601Z,19.48
2018-05-29T04:51:51.180Z,19.41
2018-05-29T04:52:51.757Z,19.44
2018-05-29T04:53:52.334Z,19.48
2018-05-29T04:54:52.912Z,19.47
2018-05-29T04:55:53.488Z,19.49
2018-05-29T04:56:54.067Z,19.45
2018-05-29T04:57:54.644Z,19.48
2018-05-29T04:58:55.273Z,19.51
2018-05-29T04:59:55.891Z,19.47
2018-05-29T05:00:56.433Z,19.51
2018-05-29T05:01:57.011Z,19.49
2018-05-29T05:02:57.639Z,19.49
2018-05-29T05:03:58.268Z,19.45
2018-05-29T05:04:58.846Z,19.45
2018-05-29T05:05:59.424Z,19.51
2018-05-29T05:07:00.017Z,19.52
2018-05-29T05:08:00.621Z,19.47
2018-05-29T05:09:01.226Z,19.45
2018-05-29T05:10:01.778Z,19.47
2018-05-29T05:11:02.355Z,19.51
2018-05-29T05:12:02.933Z,19.48
2018-05-29T05:13:03.512Z,19.48
2018-05-29T05:14:04.092Z,19.54
2018-05-29T05:15:04.720Z,19.47
2018-05-29T05:16:05.350Z,19.48
2018-05-29T05:17:05.933Z,19.47
2018-05-29T05:18:06.509Z,19.45
2018-05-29T05:19:07.087Z,19.41
2018-05-29T05:20:07.678Z,19.45
2018-05-29T05:21:08.244Z,19.47
2018-05-29T05:22:08.872Z,19.41
2018-05-29T05:23:09.450Z,19.45
2018-05-29T05:24:10.032Z,19.44
2018-05-29T05:25:10.651Z,19.44
2018-05-29T05:26:11.229Z,19.44
2018-05-29T05:27:11.857Z,19.36
2018-05-29T05:28:12.433Z,19.44
2018-05-29T05:29:13.010Z,19.48
2018-05-29T05:30:13.589Z,19.44
2018-05-29T05:31:14.266Z,19.54
2018-05-29T05:32:14.895Z,19.48
2018-05-29T05:33:15.475Z,19.48
2018-05-29T05:34:16.056Z,19.45
2018-05-29T05:35:16.839Z,19.45
2018-05-29T05:36:17.462Z,19.44
2018-05-29T05:37:18.038Z,19.45
2018-05-29T05:38:18.618Z,19.48
2018-05-29T05:39:19.196Z,19.51
2018-05-29T05:40:19.777Z,19.41
2018-05-29T05:41:20.356Z,19.41
2018-05-29T05:42:20.935Z,19.41
2018-05-29T05:43:21.516Z,19.47
2018-05-29T05:44:22.095Z,19.41
2018-05-29T05:45:22.674Z,19.47
2018-05-29T05:46:23.252Z,19.40
2018-05-29T05:47:23.830Z,19.40
2018-05-29T05:48:24.409Z,19.47
2018-05-29T05:49:25.039Z,19.49
2018-05-29T05:50:25.617Z,19.41
2018-05-29T05:51:26.246Z,19.45
2018-05-29T05:52:26.872Z,19.41
2018-05-29T05:53:27.455Z,19.44
2018-05-29T05:54:28.075Z,19.41
2018-05-29T05:55:28.654Z,19.44
2018-05-29T05:56:29.232Z,19.49
2018-05-29T05:57:29.810Z,19.54
2018-05-29T05:58:30.479Z,19.44
2018-05-29T05:59:31.027Z,19.52
2018-05-29T06:00:31.599Z,19.51
2018-05-29T06:01:32.176Z,19.40
2018-05-29T06:02:32.759Z,19.47
2018-05-29T06:03:33.377Z,19.47
2018-05-29T06:04:33.956Z,19.44
2018-05-29T06:05:34.535Z,19.48
2018-05-29T06:06:35.113Z,19.45
2018-05-29T06:07:35.788Z,19.45
2018-05-29T06:08:36.414Z,19.47
2018-05-29T06:09:37.042Z,19.44
2018-05-29T06:10:37.622Z,19.44
2018-05-29T06:11:38.202Z,19.41
2018-05-29T06:12:38.779Z,19.47
2018-05-29T06:13:39.357Z,19.47
2018-05-29T06:14:39.934Z,19.44
2018-05-29T06:15:40.510Z,19.44
2018-05-29T06:16:41.089Z,19.48
2018-05-29T06:17:41.668Z,19.44
2018-05-29T06:18:42.248Z,19.45
2018-05-29T06:19:42.827Z,19.48
2018-05-29T06:20:43.409Z,19.48
2018-05-29T06:21:43.987Z,19.48
2018-05-29T06:22:44.566Z,19.48
2018-05-29T06:23:45.196Z,19.49
2018-05-29T06:24:45.774Z,19.49
2018-05-29T06:25:46.404Z,19.45
2018-05-29T06:26:46.981Z,19.47
2018-05-29T06:27:47.560Z,19.47
2018-05-29T06:28:48.139Z,19.47
2018-05-29T06:29:48.772Z,19.49
2018-05-29T06:30:49.345Z,19.48
2018-05-29T06:31:49.925Z,19.45
2018-05-29T06:32:50.565Z,19.47
2018-05-29T06:33:51.121Z,19.49
2018-05-29T06:34:51.701Z,19.45
2018-05-29T06:35:52.278Z,19.47
2018-05-29T06:36:52.862Z,19.49
2018-05-29T06:37:53.434Z,19.44
2018-05-29T06:38:54.011Z,19.49
2018-05-29T06:39:54.587Z,19.52
2018-05-29T06:40:55.215Z,19.48
2018-05-29T06:41:55.793Z,19.48
2018-05-29T06:42:56.380Z,19.47
2018-05-29T06:43:56.994Z,19.39
2018-05-29T06:44:57.682Z,19.48
2018-05-29T06:45:58.203Z,19.48
2018-05-29T06:46:58.834Z,19.41
2018-05-29T06:47:59.411Z,19.41
2018-05-29T06:48:59.990Z,19.45
2018-05-29T06:50:00.564Z,19.47
2018-05-29T06:51:01.142Z,19.48
2018-05-29T06:52:01.719Z,19.51
2018-05-29T06:53:02.298Z,19.51
2018-05-29T06:54:02.878Z,19.51
2018-05-29T06:55:03.459Z,19.49
2018-05-29T06:56:04.056Z,19.51
2018-05-29T06:57:04.618Z,19.39
2018-05-29T06:58:05.197Z,19.44
2018-05-29T06:59:05.775Z,19.48
2018-05-29T07:00:06.354Z,19.47
2018-05-29T07:01:06.933Z,19.47
2018-05-29T07:02:07.513Z,19.48
2018-05-29T07:03:08.143Z,19.51
2018-05-29T07:04:08.724Z,19.44
2018-05-29T07:05:09.299Z,19.47
2018-05-29T07:06:09.928Z,19.54
2018-05-29T07:07:11.358Z,19.45
2018-05-29T07:08:11.938Z,19.54
2018-05-29T07:09:12.516Z,19.44
2018-05-29T07:10:13.095Z,19.41
2018-05-29T07:11:13.674Z,19.51
2018-05-29T07:12:14.252Z,19.48
2018-05-29T07:13:14.829Z,19.48
2018-05-29T07:14:15.407Z,19.56
2018-05-29T07:15:15.986Z,19.39
2018-05-29T07:16:16.569Z,19.37
2018-05-29T07:17:17.139Z,19.29
2018-05-29T07:18:17.717Z,19.15
2018-05-29T07:19:18.297Z,19.16
2018-05-29T07:20:18.877Z,18.98
2018-05-29T07:21:19.505Z,18.96
2018-05-29T07:22:20.084Z,18.93
2018-05-29T07:23:20.660Z,18.84
2018-05-29T07:24:21.290Z,18.80
2018-05-29T07:25:21.870Z,18.77
2018-05-29T07:26:22.449Z,18.74
2018-05-29T07:27:23.028Z,18.65
2018-05-29T07:28:23.657Z,18.73
2018-05-29T07:29:24.235Z,18.74
2018-05-29T07:30:24.817Z,18.63
2018-05-29T07:31:25.436Z,18.63
2018-05-29T07:32:26.014Z,18.62
2018-05-29T07:33:26.595Z,18.62
2018-05-29T07:34:27.171Z,18.77
2018-05-29T07:35:27.748Z,18.71
2018-05-29T07:36:28.326Z,18.77
2018-05-29T07:37:28.906Z,18.73
2018-05-29T07:38:29.539Z,18.77
2018-05-29T07:39:30.119Z,18.74
2018-05-29T07:40:30.743Z,18.73
2018-05-29T07:41:31.322Z,18.71
2018-05-29T07:42:31.901Z,18.75
2018-05-29T07:43:32.531Z,18.77
2018-05-29T07:44:33.109Z,18.68
2018-05-29T07:45:33.683Z,18.73
2018-05-29T07:46:34.262Z,18.70
2018-05-29T07:47:34.840Z,18.71
2018-05-29T07:48:35.422Z,18.78
2018-05-29T07:49:36.001Z,18.75
2018-05-29T07:50:36.580Z,18.71
2018-05-29T07:51:37.158Z,18.77
2018-05-29T07:52:37.736Z,18.77
2018-05-29T07:53:38.317Z,18.71
2018-05-29T07:54:38.891Z,18.71
2018-05-29T07:55:39.467Z,18.73
2018-05-29T07:56:40.096Z,18.77
2018-05-29T07:57:40.727Z,18.74
2018-05-29T07:58:41.346Z,18.73
2018-05-29T07:59:41.924Z,18.74
2018-05-29T08:00:42.503Z,18.83
2018-05-29T08:01:43.082Z,18.73
2018-05-29T08:02:43.712Z,18.77
2018-05-29T08:03:44.293Z,18.73
2018-05-29T08:04:44.870Z,18.77
2018-05-29T08:05:45.445Z,18.77
2018-05-29T08:06:46.024Z,18.86
2018-05-29T08:07:46.653Z,18.80
2018-05-29T08:08:47.185Z,18.83
2018-05-29T08:09:47.762Z,18.86
2018-05-29T08:10:48.342Z,18.93
2018-05-29T08:11:48.922Z,18.89
2018-05-29T08:12:49.500Z,18.86
2018-05-29T08:13:50.077Z,18.86
2018-05-29T08:14:50.654Z,18.84
2018-05-29T08:15:51.382Z,18.89
2018-05-29T08:16:52.013Z,18.83
2018-05-29T08:17:52.591Z,18.88
2018-05-29T08:18:53.171Z,18.90
2018-05-29T08:19:53.745Z,18.80
2018-05-29T08:20:54.376Z,18.90
2018-05-29T08:21:54.953Z,18.84
2018-05-29T08:22:55.530Z,18.84
2018-05-29T08:23:56.109Z,18.74
2018-05-29T08:24:56.686Z,18.77
2018-05-29T08:25:57.264Z,18.77
2018-05-29T08:26:57.842Z,18.74
2018-05-29T08:27:58.420Z,18.90
2018-05-29T08:28:58.998Z,18.81
2018-05-29T08:29:59.575Z,18.86
2018-05-29T08:31:00.313Z,18.81
2018-05-29T08:32:00.888Z,18.90
2018-05-29T08:33:01.465Z,18.86
2018-05-29T08:34:02.045Z,18.90
2018-05-29T08:35:02.624Z,18.83
2018-05-29T08:36:03.392Z,18.88
2018-05-29T08:37:04.120Z,18.88
2018-05-29T08:38:04.699Z,18.90
2018-05-29T08:39:05.282Z,18.86
2018-05-29T08:40:05.860Z,18.90
2018-05-29T08:41:06.439Z,18.83
2018-05-29T08:42:07.019Z,18.90
2018-05-29T08:43:07.597Z,18.86
2018-05-29T08:44:08.176Z,18.93
2018-05-29T08:45:08.756Z,18.90
2018-05-29T08:46:09.352Z,18.98
2018-05-29T08:47:09.914Z,18.88
2018-05-29T08:48:10.492Z,18.98
2018-05-29T08:49:11.119Z,18.99
2018-05-29T08:50:11.697Z,18.98
2018-05-29T08:51:12.276Z,19.02
2018-05-29T08:52:12.904Z,18.96
2018-05-29T08:53:13.483Z,18.98
2018-05-29T08:54:14.060Z,19.02
2018-05-29T08:55:14.641Z,19.00
2018-05-29T08:56:15.262Z,18.96
2018-05-29T08:57:15.802Z,18.99
2018-05-29T08:58:16.573Z,18.95
2018-05-29T08:59:17.151Z,19.00
2018-05-29T09:00:17.731Z,19.00
2018-05-29T09:01:18.307Z,19.00
2018-05-29T09:02:18.884Z,19.02
2018-05-29T09:03:19.465Z,18.98
2018-05-29T09:04:20.063Z,18.86
2018-05-29T09:05:20.660Z,18.96
2018-05-29T09:06:21.287Z,18.96
2018-05-29T09:07:21.867Z,18.86
2018-05-29T09:08:22.498Z,18.98
2018-05-29T09:09:23.075Z,18.96
2018-05-29T09:10:23.654Z,19.02
2018-05-29T09:11:24.234Z,18.98
2018-05-29T09:12:24.815Z,19.04
2018-05-29T09:13:25.397Z,19.04
2018-05-29T09:14:25.975Z,19.07
2018-05-29T09:15:26.552Z,19.14
2018-05-29T09:16:27.130Z,19.14
2018-05-29T09:17:27.708Z,19.15
2018-05-29T09:18:28.285Z,19.15
2018-05-29T09:19:28.866Z,19.14
2018-05-29T09:20:29.443Z,19.19
2018-05-29T09:21:30.072Z,19.19
2018-05-29T09:22:30.653Z,19.15
2018-05-29T09:23:31.273Z,19.19
2018-05-29T09:24:31.853Z,19.19
2018-05-29T09:25:32.483Z,19.19
2018-05-29T09:26:33.062Z,19.29
2018-05-29T09:27:33.691Z,19.29
2018-05-29T09:28:34.270Z,19.24
2018-05-29T09:29:34.856Z,19.31
2018-05-29T09:30:35.433Z,19.39
2018-05-29T09:31:36.014Z,19.44
2018-05-29T09:32:36.597Z,19.44
2018-05-29T09:33:37.179Z,19.45
2018-05-29T09:34:37.762Z,19.41
2018-05-29T09:35:38.339Z,19.48
2018-05-29T09:36:38.925Z,19.47
2018-05-29T09:37:39.541Z,19.54
2018-05-29T09:38:40.122Z,19.48
2018-05-29T09:39:40.702Z,19.45
2018-05-29T09:40:41.323Z,19.45
2018-05-29T09:41:41.902Z,19.45
2018-05-29T09:42:47.535Z,19.49
2018-05-29T09:43:48.116Z,19.44
2018-05-29T09:44:48.802Z,19.51
2018-05-29T09:45:49.383Z,19.52
2018-05-29T09:46:50.008Z,19.55
2018-05-29T09:47:50.588Z,19.55
2018-05-29T09:48:51.166Z,19.51
2018-05-29T09:49:51.744Z,19.63
2018-05-29T09:50:52.327Z,19.59
2018-05-29T09:51:52.950Z,19.55
2018-05-29T09:52:53.533Z,19.64
2018-05-29T09:53:54.147Z,19.59
2018-05-29T09:54:54.730Z,19.69
2018-05-29T09:55:55.312Z,19.58
2018-05-29T09:56:55.892Z,19.59
2018-05-29T09:57:56.474Z,19.56
2018-05-29T09:58:57.053Z,19.54
2018-05-29T09:59:57.631Z,19.63
2018-05-29T10:00:58.213Z,19.54
2018-05-29T10:01:58.791Z,19.56
2018-05-29T10:02:59.420Z,19.67
2018-05-29T10:04:00.048Z,19.64
2018-05-29T10:05:00.726Z,19.69
2018-05-29T10:06:01.306Z,19.58
2018-05-29T10:07:01.912Z,19.63
2018-05-29T10:08:02.466Z,19.62
2018-05-29T10:09:03.042Z,19.66
2018-05-29T10:10:03.621Z,19.64
2018-05-29T10:11:04.202Z,19.64
2018-05-29T10:12:04.783Z,19.63
2018-05-29T10:13:05.364Z,19.67
2018-05-29T10:14:05.943Z,19.71
2018-05-29T10:15:06.523Z,19.70
2018-05-29T10:16:07.161Z,19.74
2018-05-29T10:17:07.793Z,19.76
2018-05-29T10:18:08.313Z,19.76
2018-05-29T10:19:08.891Z,19.76
2018-05-29T10:20:09.471Z,19.73
2018-05-29T10:21:10.100Z,19.76
2018-05-29T10:22:10.680Z,19.82
2018-05-29T10:23:11.260Z,19.74
2018-05-29T10:24:11.889Z,19.73
2018-05-29T10:25:12.572Z,19.79
2018-05-29T10:26:13.151Z,19.74
2018-05-29T10:27:13.775Z,19.70
2018-05-29T10:28:14.357Z,19.73
2018-05-29T10:29:14.934Z,19.84
2018-05-29T10:30:15.517Z,19.74
2018-05-29T10:31:16.098Z,19.76
2018-05-29T10:32:16.680Z,19.71
2018-05-29T10:33:17.258Z,19.84
2018-05-29T10:34:17.839Z,19.76
2018-05-29T10:35:18.417Z,19.77
2018-05-29T10:36:18.995Z,19.81
2018-05-29T10:37:19.573Z,19.79
2018-05-29T10:38:20.152Z,19.79
2018-05-29T10:39:20.738Z,19.84
2018-05-29T10:40:21.460Z,19.94
2018-05-29T10:41:21.995Z,19.79
2018-05-29T10:42:22.577Z,19.77
2018-05-29T10:43:23.205Z,19.86
2018-05-29T10:44:23.784Z,19.85
2018-05-29T10:45:24.413Z,19.85
2018-05-29T10:46:24.991Z,19.79
2018-05-29T10:47:25.572Z,19.85
2018-05-29T10:48:26.155Z,19.86
2018-05-29T10:49:26.731Z,19.85
2018-05-29T10:50:27.311Z,19.77
2018-05-29T10:51:27.890Z,19.84
2018-05-29T10:52:28.601Z,19.77
2018-05-29T10:53:29.150Z,19.77
2018-05-29T10:54:29.730Z,19.85
2018-05-29T10:55:30.314Z,19.82
2018-05-29T10:56:30.942Z,19.85
2018-05-29T10:57:31.522Z,19.89
2018-05-29T10:58:32.103Z,19.85
2018-05-29T10:59:32.683Z,19.86
2018-05-29T11:00:33.266Z,19.85
2018-05-29T11:01:33.895Z,19.92
2018-05-29T11:02:34.476Z,19.85
2018-05-29T11:03:35.057Z,19.88
2018-05-29T11:04:35.688Z,19.86
2018-05-29T11:05:36.312Z,19.88
2018-05-29T11:06:36.895Z,19.88
2018-05-29T11:07:37.475Z,19.84
2018-05-29T11:08:38.055Z,19.85
2018-05-29T11:09:38.634Z,19.88
2018-05-29T11:10:39.218Z,19.86
2018-05-29T11:11:39.836Z,19.88
2018-05-29T11:12:40.413Z,19.84
2018-05-29T11:13:40.994Z,19.88
2018-05-29T11:14:41.574Z,19.86
2018-05-29T11:15:42.155Z,19.84
2018-05-29T11:16:42.785Z,19.88
2018-05-29T11:17:43.365Z,19.85
2018-05-29T11:18:43.949Z,19.89
2018-05-29T11:19:44.622Z,19.89
2018-05-29T11:20:45.202Z,19.81
2018-05-29T11:21:45.833Z,19.86
2018-05-29T11:22:46.411Z,19.85
2018-05-29T11:23:46.992Z,19.89
2018-05-29T11:24:47.568Z,19.85
2018-05-29T11:25:48.147Z,19.81
2018-05-29T11:26:48.727Z,19.85
2018-05-29T11:27:49.307Z,19.92
2018-05-29T11:28:49.891Z,19.88
2018-05-29T11:29:50.471Z,19.91
2018-05-29T11:30:51.101Z,19.89
2018-05-29T11:31:51.683Z,19.85
2018-05-29T11:32:52.261Z,19.85
2018-05-29T11:33:52.839Z,19.86
2018-05-29T11:34:53.419Z,19.85
2018-05-29T11:35:53.997Z,19.86
2018-05-29T11:36:54.580Z,19.86
2018-05-29T11:37:55.407Z,19.84
2018-05-29T11:38:55.983Z,19.91
2018-05-29T11:39:56.567Z,19.85
2018-05-29T11:40:57.242Z,19.85
2018-05-29T11:41:57.823Z,19.86
2018-05-29T11:42:58.402Z,19.89
2018-05-29T11:43:58.984Z,19.88
2018-05-29T11:44:59.565Z,19.85
2018-05-29T11:46:00.186Z,19.86
2018-05-29T11:47:00.765Z,19.85
2018-05-29T11:48:06.396Z,19.94
2018-05-29T11:49:06.974Z,19.89
2018-05-29T11:50:07.557Z,19.89
2018-05-29T11:51:08.132Z,19.89
2018-05-29T11:52:08.712Z,19.89
2018-05-29T11:53:09.291Z,19.92
2018-05-29T11:54:09.923Z,19.88
2018-05-29T11:55:10.503Z,19.86
2018-05-29T11:56:11.083Z,19.94
2018-05-29T11:57:11.716Z,19.85
2018-05-29T11:58:12.295Z,19.99
2018-05-29T11:59:12.875Z,19.86
2018-05-29T12:00:13.509Z,19.89
2018-05-29T12:01:19.230Z,19.88
2018-05-29T12:02:19.810Z,20.03
2018-05-29T12:03:20.393Z,19.92
2018-05-29T12:04:20.972Z,19.91
2018-05-29T12:05:21.553Z,19.95
2018-05-29T12:06:22.135Z,19.95
2018-05-29T12:07:22.715Z,19.96
2018-05-29T12:08:23.301Z,19.99
2018-05-29T12:09:23.879Z,19.95
2018-05-29T12:10:24.505Z,19.91
2018-05-29T12:11:25.086Z,19.96
2018-05-29T12:12:25.668Z,19.96
2018-05-29T12:13:26.342Z,19.95
2018-05-29T12:14:26.921Z,20.00
2018-05-29T12:15:27.500Z,19.95
2018-05-29T12:16:28.082Z,19.96
2018-05-29T12:17:28.656Z,19.99
2018-05-29T12:18:29.287Z,19.96
2018-05-29T12:19:29.868Z,19.92
2018-05-29T12:20:30.451Z,19.89
2018-05-29T12:21:31.027Z,19.96
2018-05-29T12:22:31.606Z,20.06
2018-05-29T12:23:32.185Z,19.95
2018-05-29T12:24:32.766Z,20.06
2018-05-29T12:25:33.346Z,20.00
2018-05-29T12:26:33.930Z,19.94
2018-05-29T12:27:34.512Z,20.00
2018-05-29T12:28:35.140Z,20.04
2018-05-29T12:29:35.721Z,19.99
2018-05-29T12:30:36.301Z,20.02
2018-05-29T12:31:36.981Z,19.91
2018-05-29T12:32:37.562Z,19.99
2018-05-29T12:33:38.142Z,20.00
2018-05-29T12:34:38.723Z,19.99
2018-05-29T12:35:39.346Z,20.07
2018-05-29T12:36:39.927Z,20.03
2018-05-29T12:37:40.508Z,19.95
2018-05-29T12:38:41.092Z,20.00
2018-05-29T12:39:41.673Z,20.04
2018-05-29T12:40:42.254Z,19.99
2018-05-29T12:41:42.832Z,20.04
2018-05-29T12:42:43.415Z,19.99
2018-05-29T12:43:43.996Z,20.09
2018-05-29T12:44:44.628Z,20.04
2018-05-29T12:45:45.301Z,19.95
2018-05-29T12:46:45.885Z,20.02
2018-05-29T12:47:46.514Z,20.07
2018-05-29T12:48:47.097Z,20.06
2018-05-29T12:49:47.679Z,20.02
2018-05-29T12:50:48.256Z,20.02
2018-05-29T12:51:48.834Z,20.02
2018-05-29T12:52:49.414Z,20.06
2018-05-29T12:53:49.997Z,20.09
2018-05-29T12:54:50.577Z,20.02
2018-05-29T12:55:51.158Z,19.99
2018-05-29T12:56:51.736Z,20.03
2018-05-29T12:57:52.315Z,20.04
2018-05-29T12:58:52.898Z,20.07
2018-05-29T12:59:53.524Z,20.09